Dripping Springs, TX (78620)

10:44 PM CDT on July 28, 2015 (GMT -0500)
Los Madrones | | Change Station
CLOSE
Current Station
Personal Weather Station
Location: Dripping Springs, TX
Elevation: 1224 ft
Nearby Weather Stations

Elev 1224 ft 30.30 °N, 98.07 °W | Updated 10 seconds ago

Clear
Clear
82.4 °F
Feels Like 87 °F
N
0.0
Wind Variable Wind from NNW
Gusts 0.0 mph

Today
High -- | Low -- °F
--% Chance of Precip.
Yesterday
High -- | Low -- °F
Precip. -- in
6:48 AM 8:29 PM
Waxing Gibbous, 93% visible
Pressure 30.00 in
Visibility 10.0 miles
Clouds Clear
Heat Index 87 °F
Dew Point 71 °F
Humidity 69%
Rainfall 0.00 in
Snow Depth Not available.
UV 0 out of 12
Pollen 6.10 out of 12
Air Quality Not available.
Flu Activity Not available.
METAR KRYW 290335Z AUTO 16007G15KT 120V190 10SM CLR 30/20 A3000 RMK AO2 T02960202

More Conditions Fewer Conditions

Pressure 30.00 in
Visibility 10.0 miles
Clouds Clear
Heat Index 87 °F
Dew Point 71 °F
Humidity 69%
Rainfall 0.00 in
Snow Depth Not available.
UV 0 out of 12
Pollen 6.10 out of 12
Air Quality Not available.
Flu Activity Not available.
METAR KRYW 290335Z AUTO 16007G15KT 120V190 10SM CLR 30/20 A3000 RMK AO2 T02960202

More Conditions Fewer Conditions

10-Day Weather Forecast

×

Almanac

Astronomy

Jul. 28, 2015 Rise Set
Actual Time
Civil Twilight
Nautical Twilight
Astronomical Twilight
Moon
Length of Visible Light
Length of Day
Tomorrow will be .
, % of the Moon is Illuminated

Today's Extremes

State Highs State Lows

Community

WunderPhotos

Upload Photos

1,842,025 photos uploaded!

WunderBlogs® & News

Nearby

Air Quality

  Air Quality AQ Index Pollutant
Not available.

Snow Depth

Station Depth Elevation

Earthquake Activity

City Distance Mag. Time & Date
Minimum magnitude displayed is 2.5.

Coastal Water Temperatures

Place Temperature

Stations

Nearby Weather Stations

Station Location Temp. Windchill Dew Point Humidity Wind Precip. Elev Updated Type